createdAt,value
2022-11-12T00:01:06.578Z,10.23
2022-11-12T00:03:33.604Z,11.80
2022-11-12T00:06:00.791Z,9.07
2022-11-12T00:08:28.122Z,10.50
2022-11-12T00:10:55.340Z,13.13
2022-11-12T00:13:22.501Z,11.07
2022-11-12T00:15:49.469Z,11.43
2022-11-12T00:18:16.508Z,9.98
2022-11-12T00:20:44.296Z,11.43
2022-11-12T00:23:11.304Z,10.27
2022-11-12T00:25:38.273Z,10.05
2022-11-12T00:28:10.553Z,11.50
2022-11-12T00:30:40.143Z,10.90
2022-11-12T00:33:07.787Z,9.40
2022-11-12T00:35:35.319Z,9.77
2022-11-12T00:38:02.633Z,9.43
2022-11-12T00:40:29.999Z,9.43
2022-11-12T00:42:57.122Z,11.98
2022-11-12T00:45:24.953Z,9.18
2022-11-12T00:47:56.688Z,9.52
2022-11-12T00:50:24.829Z,8.60
2022-11-12T00:52:55.117Z,9.38
2022-11-12T00:55:22.099Z,9.88
2022-11-12T00:57:49.133Z,9.25
2022-11-12T01:00:18.826Z,9.83
2022-11-12T01:02:50.753Z,10.23
2022-11-12T01:05:19.715Z,9.57
2022-11-12T01:07:49.426Z,9.85
2022-11-12T01:10:20.208Z,8.60
2022-11-12T01:12:47.180Z,11.57
2022-11-12T01:15:14.179Z,10.53
2022-11-12T01:17:41.141Z,9.73
2022-11-12T01:20:08.620Z,7.87
2022-11-12T01:22:35.645Z,7.75
2022-11-12T01:25:02.611Z,7.55
2022-11-12T01:27:29.605Z,7.65
2022-11-12T01:29:56.530Z,9.30
2022-11-12T01:32:23.552Z,8.32
2022-11-12T01:34:51.778Z,6.07
2022-11-12T01:37:19.084Z,7.40
2022-11-12T01:39:46.045Z,8.63
2022-11-12T01:42:12.986Z,7.95
2022-11-12T01:44:44.736Z,8.65
2022-11-12T01:47:24.703Z,7.53
2022-11-12T01:50:14.474Z,7.07
2022-11-12T01:53:01.961Z,8.52
2022-11-12T01:55:35.161Z,8.27
2022-11-12T01:58:15.828Z,8.55
2022-11-12T02:00:43.358Z,7.35
2022-11-12T02:03:19.139Z,7.97
2022-11-12T02:05:51.319Z,7.93
2022-11-12T02:08:19.383Z,8.05
2022-11-12T02:10:46.333Z,8.50
2022-11-12T02:13:32.398Z,7.43
2022-11-12T02:15:59.586Z,7.63
2022-11-12T02:18:26.732Z,8.75
2022-11-12T02:21:03.390Z,7.07
2022-11-12T02:23:32.296Z,8.13
2022-11-12T02:26:02.174Z,7.65
2022-11-12T02:28:32.808Z,8.90
2022-11-12T02:30:59.876Z,8.23
2022-11-12T02:33:26.885Z,7.10
2022-11-12T02:35:53.817Z,7.70
2022-11-12T02:38:20.814Z,6.93
2022-11-12T02:40:47.763Z,7.65
2022-11-12T02:43:14.813Z,8.05
2022-11-12T02:45:41.848Z,8.52
2022-11-12T02:48:08.807Z,10.13
2022-11-12T02:50:35.739Z,7.53
2022-11-12T02:53:02.962Z,8.82
2022-11-12T02:55:30.000Z,9.60
2022-11-12T02:58:00.412Z,7.55
2022-11-12T03:00:27.605Z,8.95
2022-11-12T03:03:00.655Z,7.90
2022-11-12T03:05:32.560Z,9.52
2022-11-12T03:08:02.687Z,8.45
2022-11-12T03:10:30.933Z,7.47
2022-11-12T03:13:00.482Z,6.75
2022-11-12T03:15:29.898Z,8.20
2022-11-12T03:18:00.543Z,7.75
2022-11-12T03:20:28.405Z,7.70
2022-11-12T03:23:09.981Z,8.55
2022-11-12T03:25:37.590Z,7.50
2022-11-12T03:28:11.458Z,8.15
2022-11-12T03:30:41.674Z,7.43
2022-11-12T03:33:12.129Z,7.95
2022-11-12T03:35:40.161Z,7.35
2022-11-12T03:38:07.530Z,6.72
2022-11-12T03:40:35.127Z,6.82
2022-11-12T03:43:02.075Z,7.25
2022-11-12T03:45:29.116Z,6.95
2022-11-12T03:47:57.937Z,7.45
2022-11-12T03:50:28.685Z,8.38
2022-11-12T03:53:00.053Z,6.93
2022-11-12T03:55:29.190Z,7.28
2022-11-12T03:57:57.792Z,7.85
2022-11-12T04:00:27.501Z,7.35
2022-11-12T04:02:54.888Z,6.97
2022-11-12T04:05:40.902Z,8.07
2022-11-12T04:08:35.226Z,7.03
2022-11-12T04:11:14.704Z,8.20
2022-11-12T04:13:43.317Z,7.47
2022-11-12T04:16:31.926Z,7.70
2022-11-12T04:19:19.864Z,8.25
2022-11-12T04:21:53.682Z,5.70
2022-11-12T04:24:57.439Z,6.40
2022-11-12T04:27:28.970Z,6.38
2022-11-12T04:30:15.268Z,6.88
2022-11-12T04:32:56.926Z,6.72
2022-11-12T04:35:26.716Z,7.75
2022-11-12T04:37:54.591Z,6.70
2022-11-12T04:40:44.243Z,8.23
2022-11-12T04:43:36.247Z,6.85
2022-11-12T04:46:04.843Z,6.50
2022-11-12T04:48:32.394Z,6.07
2022-11-12T04:51:24.712Z,5.90
2022-11-12T04:53:52.004Z,7.20
2022-11-12T04:56:18.921Z,7.07
2022-11-12T04:58:46.161Z,7.13
2022-11-12T05:01:13.251Z,8.90
2022-11-12T05:03:40.291Z,7.03
2022-11-12T05:06:26.211Z,6.75
2022-11-12T05:08:53.218Z,6.72
2022-11-12T05:11:20.184Z,6.65
2022-11-12T05:13:47.217Z,7.22
2022-11-12T05:16:14.171Z,7.00
2022-11-12T05:18:41.089Z,6.68
2022-11-12T05:21:28.167Z,7.10
2022-11-12T05:23:55.113Z,6.43
2022-11-12T05:26:22.082Z,7.85
2022-11-12T05:28:49.104Z,5.70
2022-11-12T05:31:16.033Z,6.47
2022-11-12T05:33:42.972Z,5.55
2022-11-12T05:36:09.953Z,6.60
2022-11-12T05:38:39.123Z,8.55
2022-11-12T05:41:06.244Z,7.30
2022-11-12T05:43:33.197Z,7.22
2022-11-12T05:46:00.155Z,7.75
2022-11-12T05:48:27.585Z,6.68
2022-11-12T05:51:12.685Z,7.38
2022-11-12T05:53:42.619Z,7.93
2022-11-12T05:56:11.965Z,8.07
2022-11-12T05:58:39.391Z,7.80
2022-11-12T06:01:06.598Z,7.13
2022-11-12T06:03:33.701Z,7.22
2022-11-12T06:06:00.781Z,7.93
2022-11-12T06:08:28.423Z,9.63
2022-11-12T06:10:56.677Z,9.07
2022-11-12T06:13:25.249Z,8.10
2022-11-12T06:15:54.357Z,8.60
2022-11-12T06:18:22.252Z,8.50
2022-11-12T06:21:09.173Z,8.27
2022-11-12T06:23:36.431Z,8.13
2022-11-12T06:26:04.845Z,8.52
2022-11-12T06:28:31.902Z,8.35
2022-11-12T06:30:58.856Z,8.40
2022-11-12T06:33:25.839Z,8.77
2022-11-12T06:36:04.839Z,8.25
2022-11-12T06:38:37.860Z,8.18
2022-11-12T06:41:06.003Z,8.07
2022-11-12T06:43:34.942Z,7.70
2022-11-12T06:46:16.347Z,8.20
2022-11-12T06:48:43.616Z,9.32
2022-11-12T06:51:17.293Z,8.10
2022-11-12T06:53:44.714Z,7.57
2022-11-12T06:56:11.886Z,8.70
2022-11-12T06:58:39.326Z,10.10
2022-11-12T07:01:12.826Z,7.97
2022-11-12T07:03:41.891Z,8.95
2022-11-12T07:06:13.403Z,9.00
2022-11-12T07:08:41.596Z,7.90
2022-11-12T07:11:09.104Z,7.78
2022-11-12T07:13:36.880Z,8.93
2022-11-12T07:16:06.722Z,9.63
2022-11-12T07:18:35.267Z,9.68
2022-11-12T07:21:14.700Z,8.70
2022-11-12T07:23:41.640Z,8.30
2022-11-12T07:26:21.963Z,7.82
2022-11-12T07:28:51.749Z,9.13
2022-11-12T07:31:20.545Z,8.95
2022-11-12T07:33:50.596Z,8.07
2022-11-12T07:36:20.698Z,12.48
2022-11-12T07:38:51.753Z,9.98
2022-11-12T07:41:24.538Z,7.97
2022-11-12T07:43:53.780Z,8.88
2022-11-12T07:46:27.132Z,8.45
2022-11-12T07:48:54.869Z,7.90
2022-11-12T07:51:28.263Z,7.95
2022-11-12T07:53:59.935Z,10.48
2022-11-12T07:56:28.929Z,8.52
2022-11-12T07:58:55.969Z,10.65
2022-11-12T08:01:32.460Z,8.48
2022-11-12T08:04:01.510Z,9.80
2022-11-12T08:06:30.235Z,9.97
2022-11-12T08:08:59.660Z,10.25
2022-11-12T08:11:26.918Z,10.65
2022-11-12T08:13:53.946Z,10.40
2022-11-12T08:16:21.141Z,11.18
2022-11-12T08:18:48.508Z,10.23
2022-11-12T08:21:17.777Z,10.60
2022-11-12T08:23:45.203Z,9.50
2022-11-12T08:26:15.888Z,10.40
2022-11-12T08:28:43.043Z,10.15
2022-11-12T08:31:13.684Z,11.73
2022-11-12T08:33:41.770Z,10.50
2022-11-12T08:36:12.253Z,10.90
2022-11-12T08:38:40.311Z,9.90
2022-11-12T08:41:11.412Z,11.32
2022-11-12T08:43:40.365Z,11.75
2022-11-12T08:46:07.665Z,11.07
2022-11-12T08:48:35.962Z,11.00
2022-11-12T08:51:05.269Z,11.40
2022-11-12T08:53:32.680Z,10.05
2022-11-12T08:56:00.034Z,10.90
2022-11-12T08:58:28.093Z,11.75
2022-11-12T09:00:56.982Z,10.52
2022-11-12T09:03:26.316Z,10.40
2022-11-12T09:05:54.119Z,9.35
2022-11-12T09:08:25.368Z,11.65
2022-11-12T09:10:52.676Z,9.75
2022-11-12T09:13:20.242Z,10.80
2022-11-12T09:15:47.786Z,11.50
2022-11-12T09:18:18.452Z,10.80
2022-11-12T09:20:46.037Z,12.10
2022-11-12T09:23:15.835Z,11.70
2022-11-12T09:25:43.510Z,11.23
2022-11-12T09:28:18.518Z,10.53
2022-11-12T09:30:49.211Z,10.30
2022-11-12T09:33:34.653Z,10.65
2022-11-12T09:36:03.642Z,9.45
2022-11-12T09:38:31.476Z,12.25
2022-11-12T09:41:21.527Z,9.95
2022-11-12T09:43:55.480Z,9.98
2022-11-12T09:46:48.122Z,10.43
2022-11-12T09:49:24.617Z,8.77
2022-11-12T09:52:03.181Z,8.63
2022-11-12T09:54:33.508Z,11.37
2022-11-12T09:57:01.118Z,12.18
2022-11-12T09:59:33.078Z,9.60
2022-11-12T10:02:32.060Z,8.23
2022-11-12T10:05:20.284Z,8.80
2022-11-12T10:08:01.333Z,9.20
2022-11-12T10:10:45.735Z,9.15
2022-11-12T10:13:52.299Z,8.15
2022-11-12T10:16:56.889Z,9.40
2022-11-12T10:19:59.663Z,9.40
2022-11-12T10:22:40.739Z,9.00
2022-11-12T10:25:19.151Z,8.80
2022-11-12T10:27:48.369Z,9.25
2022-11-12T10:30:19.484Z,7.93
2022-11-12T10:32:49.083Z,8.60
2022-11-12T10:35:23.377Z,7.70
2022-11-12T10:38:02.845Z,7.50
2022-11-12T10:40:41.521Z,7.55
2022-11-12T10:43:17.465Z,9.23
2022-11-12T10:45:46.690Z,7.65
2022-11-12T10:48:28.757Z,7.00
2022-11-12T10:50:56.236Z,8.00
2022-11-12T10:53:49.211Z,7.28
2022-11-12T10:56:29.588Z,6.85
2022-11-12T10:59:19.497Z,7.68
2022-11-12T11:01:56.384Z,7.68
2022-11-12T11:04:36.602Z,7.03
2022-11-12T11:07:25.566Z,8.52
2022-11-12T11:10:01.750Z,8.15
2022-11-12T11:12:32.240Z,8.75
2022-11-12T11:15:14.153Z,8.55
2022-11-12T11:17:41.203Z,7.18
2022-11-12T11:20:43.782Z,7.28
2022-11-12T11:23:26.386Z,9.05
2022-11-12T11:25:58.780Z,9.37
2022-11-12T11:28:58.849Z,6.97
2022-11-12T11:32:00.607Z,7.68
2022-11-12T11:34:39.612Z,7.40
2022-11-12T11:37:28.853Z,8.70
2022-11-12T11:40:16.092Z,7.20
2022-11-12T11:43:24.932Z,6.97
2022-11-12T11:46:17.089Z,5.68
2022-11-12T11:49:20.352Z,7.13
2022-11-12T11:52:02.057Z,6.70
2022-11-12T11:54:43.562Z,7.47
2022-11-12T11:57:28.353Z,6.75
2022-11-12T12:00:21.073Z,9.07
2022-11-12T12:03:29.183Z,7.45
2022-11-12T12:06:27.794Z,7.57
2022-11-12T12:09:08.125Z,5.03
2022-11-12T12:11:40.469Z,6.47
2022-11-12T12:14:10.363Z,6.22
2022-11-12T12:17:09.708Z,6.78
2022-11-12T12:20:00.925Z,6.28
2022-11-12T12:22:44.298Z,6.25
2022-11-12T12:25:35.062Z,8.10
2022-11-12T12:28:58.877Z,6.30
2022-11-12T12:31:35.568Z,6.82
2022-11-12T12:34:36.886Z,6.43
2022-11-12T12:37:39.659Z,6.43
2022-11-12T12:40:50.039Z,6.88
2022-11-12T12:44:05.344Z,10.23
2022-11-12T12:46:40.861Z,8.23
2022-11-12T12:49:12.521Z,7.75
2022-11-12T12:51:39.602Z,7.25
2022-11-12T12:54:35.032Z,7.97
2022-11-12T12:57:04.647Z,7.22
2022-11-12T12:59:32.368Z,6.17
2022-11-12T13:02:03.694Z,7.45
2022-11-12T13:04:56.303Z,9.27
2022-11-12T13:07:46.349Z,5.80
2022-11-12T13:10:35.106Z,6.95
2022-11-12T13:13:06.718Z,7.13
2022-11-12T13:15:55.554Z,7.07
2022-11-12T13:18:40.665Z,7.43
2022-11-12T13:21:18.940Z,6.33
2022-11-12T13:24:07.116Z,6.88
2022-11-12T13:26:40.007Z,6.55
2022-11-12T13:29:40.453Z,7.95
2022-11-12T13:32:52.963Z,5.88
2022-11-12T13:35:22.978Z,6.82
2022-11-12T13:38:09.412Z,6.60
2022-11-12T13:41:06.274Z,6.18
2022-11-12T13:43:38.792Z,7.00
2022-11-12T13:46:11.232Z,6.78
2022-11-12T13:49:02.443Z,6.15
2022-11-12T13:51:32.176Z,5.88
2022-11-12T13:53:59.614Z,6.45
2022-11-12T13:56:37.486Z,5.72
2022-11-12T13:59:20.564Z,8.02
2022-11-12T14:01:49.949Z,6.35
2022-11-12T14:04:26.546Z,6.10
2022-11-12T14:07:32.419Z,7.05
2022-11-12T14:10:29.786Z,6.03
2022-11-12T14:13:29.391Z,6.65
2022-11-12T14:16:36.520Z,6.13
2022-11-12T14:20:25.222Z,6.65
2022-11-12T14:22:53.480Z,6.32
2022-11-12T14:25:26.840Z,6.97
2022-11-12T14:27:57.217Z,6.25
2022-11-12T14:30:32.113Z,6.33
2022-11-12T14:33:10.846Z,5.85
2022-11-12T14:35:41.277Z,7.82
2022-11-12T14:38:27.982Z,5.88
2022-11-12T14:41:01.464Z,6.57
2022-11-12T14:43:45.899Z,6.05
2022-11-12T14:46:37.930Z,7.03
2022-11-12T14:49:18.766Z,6.82
2022-11-12T14:52:16.211Z,6.95
2022-11-12T14:54:57.363Z,5.78
2022-11-12T14:57:31.163Z,7.18
2022-11-12T14:59:58.831Z,6.47
2022-11-12T15:02:47.353Z,5.68
2022-11-12T15:05:23.495Z,5.43
2022-11-12T15:07:59.416Z,7.10
2022-11-12T15:10:32.322Z,6.13
2022-11-12T15:13:24.874Z,6.13
2022-11-12T15:16:09.443Z,7.38
2022-11-12T15:18:38.495Z,6.17
2022-11-12T15:21:28.086Z,6.50
2022-11-12T15:24:06.644Z,6.78
2022-11-12T15:26:42.450Z,6.63
2022-11-12T15:29:15.407Z,6.33
2022-11-12T15:31:52.767Z,7.05
2022-11-12T15:34:48.281Z,5.78
2022-11-12T15:37:18.177Z,5.75
2022-11-12T15:39:59.426Z,6.63
2022-11-12T15:42:38.826Z,9.85
2022-11-12T15:45:19.646Z,6.28
2022-11-12T15:47:47.365Z,6.40
2022-11-12T15:50:24.493Z,8.55
2022-11-12T15:52:51.536Z,7.70
2022-11-12T15:55:19.253Z,6.57
2022-11-12T15:57:55.248Z,8.20
2022-11-12T16:00:30.522Z,6.47
2022-11-12T16:03:20.120Z,8.05
2022-11-12T16:05:48.504Z,9.18
2022-11-12T16:08:15.736Z,6.75
2022-11-12T16:10:45.631Z,7.70
2022-11-12T16:13:29.969Z,9.05
2022-11-12T16:15:57.580Z,9.15
2022-11-12T16:18:24.628Z,8.73
2022-11-12T16:20:51.719Z,9.15
2022-11-12T16:23:18.819Z,6.65
2022-11-12T16:25:46.013Z,8.43
2022-11-12T16:28:17.895Z,7.85
2022-11-12T16:30:46.650Z,8.35
2022-11-12T16:33:14.240Z,8.50
2022-11-12T16:35:41.695Z,8.27
2022-11-12T16:38:16.128Z,11.90
2022-11-12T16:40:44.893Z,12.10
2022-11-12T16:43:12.095Z,17.88
2022-11-12T16:45:41.951Z,35.57
2022-11-12T16:48:21.615Z,36.78
2022-11-12T16:50:49.137Z,17.17
2022-11-12T16:53:16.168Z,17.90
2022-11-12T16:55:43.587Z,13.33
2022-11-12T16:58:15.071Z,11.15
2022-11-12T17:00:46.053Z,13.85
2022-11-12T17:03:14.171Z,13.00
2022-11-12T17:05:41.225Z,10.05
2022-11-12T17:08:10.873Z,9.23
2022-11-12T17:10:37.950Z,7.95
2022-11-12T17:13:04.909Z,10.00
2022-11-12T17:15:31.849Z,8.07
2022-11-12T17:17:58.778Z,14.60
2022-11-12T17:20:25.907Z,10.40
2022-11-12T17:22:52.863Z,10.05
2022-11-12T17:25:19.923Z,8.88
2022-11-12T17:27:46.905Z,7.72
2022-11-12T17:30:14.237Z,8.57
2022-11-12T17:32:41.428Z,8.20
2022-11-12T17:35:08.596Z,20.88
2022-11-12T17:37:35.542Z,11.18
2022-11-12T17:40:03.713Z,9.30
2022-11-12T17:42:30.635Z,8.63
2022-11-12T17:44:57.602Z,13.10
2022-11-12T17:47:24.590Z,13.00
2022-11-12T17:49:51.559Z,10.43
2022-11-12T17:52:18.695Z,11.00
2022-11-12T17:54:45.642Z,10.80
2022-11-12T17:57:12.591Z,14.27
2022-11-12T17:59:39.568Z,15.23
2022-11-12T18:02:06.839Z,15.32
2022-11-12T18:04:33.923Z,15.88
2022-11-12T18:07:00.894Z,14.98
2022-11-12T18:09:27.883Z,14.57
2022-11-12T18:11:56.424Z,12.77
2022-11-12T18:14:24.575Z,10.45
2022-11-12T18:16:51.777Z,10.27
2022-11-12T18:19:18.726Z,13.02
2022-11-12T18:21:45.862Z,9.98
2022-11-12T18:24:15.891Z,10.57
2022-11-12T18:26:44.303Z,9.82
2022-11-12T18:29:12.766Z,11.80
2022-11-12T18:31:40.634Z,8.23
2022-11-12T18:34:13.516Z,8.90
2022-11-12T18:36:40.486Z,9.05
2022-11-12T18:39:07.623Z,10.57
2022-11-12T18:41:34.660Z,9.25
2022-11-12T18:44:02.130Z,8.63
2022-11-12T18:46:29.085Z,9.27
2022-11-12T18:48:56.035Z,8.57
2022-11-12T18:51:23.159Z,9.70
2022-11-12T18:53:50.110Z,13.73
2022-11-12T18:56:20.540Z,11.73
2022-11-12T18:58:48.294Z,11.77
2022-11-12T19:01:22.022Z,12.85
2022-11-12T19:03:53.846Z,13.93
2022-11-12T19:06:21.417Z,14.52
2022-11-12T19:08:48.837Z,14.35
2022-11-12T19:11:21.921Z,12.93
2022-11-12T19:13:54.149Z,13.25
2022-11-12T19:16:23.293Z,13.07
2022-11-12T19:18:51.504Z,15.73
2022-11-12T19:21:22.656Z,15.85
2022-11-12T19:23:54.119Z,16.02
2022-11-12T19:26:23.498Z,18.47
2022-11-12T19:28:50.868Z,18.90
2022-11-12T19:31:21.162Z,18.52
2022-11-12T19:33:48.528Z,18.53
2022-11-12T19:36:19.095Z,15.57
2022-11-12T19:38:46.502Z,19.00
2022-11-12T19:41:19.684Z,20.95
2022-11-12T19:43:47.854Z,19.23
2022-11-12T19:46:15.677Z,18.23
2022-11-12T19:48:42.982Z,16.85
2022-11-12T19:51:11.895Z,15.65
2022-11-12T19:53:46.755Z,15.90
2022-11-12T19:56:17.197Z,15.80
2022-11-12T19:58:48.792Z,16.58
2022-11-12T20:01:18.954Z,15.27
2022-11-12T20:03:46.768Z,15.15
2022-11-12T20:06:20.140Z,13.97
2022-11-12T20:08:47.401Z,17.33
2022-11-12T20:11:16.261Z,16.73
2022-11-12T20:13:43.411Z,15.70
2022-11-12T20:16:19.470Z,13.93
2022-11-12T20:18:55.759Z,14.38
2022-11-12T20:21:27.054Z,13.70
2022-11-12T20:23:54.309Z,13.02
2022-11-12T20:26:21.401Z,13.40
2022-11-12T20:28:48.891Z,12.87
2022-11-12T20:31:22.169Z,14.10
2022-11-12T20:33:50.880Z,15.05
2022-11-12T20:36:23.161Z,12.63
2022-11-12T20:38:53.080Z,12.32
2022-11-12T20:41:24.140Z,15.73
2022-11-12T20:43:57.664Z,13.20
2022-11-12T20:46:26.450Z,11.88
2022-11-12T20:48:54.844Z,14.97
2022-11-12T20:51:26.118Z,15.23
2022-11-12T20:54:00.242Z,13.23
2022-11-12T20:56:30.847Z,13.52
2022-11-12T20:58:59.249Z,14.15
2022-11-12T21:01:28.470Z,13.73
2022-11-12T21:03:58.589Z,14.38
2022-11-12T21:06:28.903Z,12.98
2022-11-12T21:08:59.814Z,12.82
2022-11-12T21:11:26.913Z,14.85
2022-11-12T21:13:53.958Z,10.50
2022-11-12T21:16:20.980Z,14.17
2022-11-12T21:18:48.023Z,14.88
2022-11-12T21:21:21.041Z,13.97
2022-11-12T21:23:51.828Z,13.85
2022-11-12T21:26:21.416Z,14.07
2022-11-12T21:28:54.536Z,12.82
2022-11-12T21:31:28.095Z,11.75
2022-11-12T21:34:04.442Z,13.48
2022-11-12T21:36:34.268Z,11.30
2022-11-12T21:39:03.155Z,12.93
2022-11-12T21:41:32.097Z,12.77
2022-11-12T21:43:59.465Z,14.20
2022-11-12T21:46:30.240Z,12.07
2022-11-12T21:48:58.250Z,10.70
2022-11-12T21:51:30.505Z,10.38
2022-11-12T21:54:07.085Z,12.63
2022-11-12T21:56:34.887Z,13.48
2022-11-12T21:59:04.108Z,14.65
2022-11-12T22:01:34.203Z,11.45
2022-11-12T22:04:06.019Z,11.30
2022-11-12T22:06:38.112Z,15.23
2022-11-12T22:09:05.691Z,10.32
2022-11-12T22:11:32.922Z,11.68
2022-11-12T22:13:59.897Z,10.18
2022-11-12T22:16:29.571Z,9.82
2022-11-12T22:18:58.314Z,13.03
2022-11-12T22:21:35.354Z,12.52
2022-11-12T22:24:06.320Z,12.40
2022-11-12T22:26:33.521Z,12.43
2022-11-12T22:29:00.564Z,11.65
2022-11-12T22:31:32.795Z,12.13
2022-11-12T22:34:02.254Z,14.02
2022-11-12T22:36:31.534Z,12.98
2022-11-12T22:38:58.814Z,13.23
2022-11-12T22:41:29.444Z,11.45
2022-11-12T22:43:59.976Z,12.93
2022-11-12T22:46:34.392Z,11.80
2022-11-12T22:49:03.684Z,13.88
2022-11-12T22:51:32.952Z,11.75
2022-11-12T22:54:06.524Z,12.10
2022-11-12T22:56:33.694Z,11.98
2022-11-12T22:59:03.531Z,11.57
2022-11-12T23:01:35.899Z,13.32
2022-11-12T23:04:06.662Z,11.93
2022-11-12T23:06:34.176Z,14.85
2022-11-12T23:09:02.067Z,10.93
2022-11-12T23:11:29.490Z,12.02
2022-11-12T23:13:56.954Z,11.68
2022-11-12T23:16:30.700Z,11.50
2022-11-12T23:18:58.802Z,13.18
2022-11-12T23:21:29.029Z,12.23
2022-11-12T23:23:59.983Z,11.32
2022-11-12T23:26:33.449Z,10.45
2022-11-12T23:29:01.782Z,14.77
2022-11-12T23:31:31.375Z,11.30
2022-11-12T23:34:02.700Z,12.63
2022-11-12T23:36:30.871Z,11.57
2022-11-12T23:38:59.023Z,10.60
2022-11-12T23:41:27.245Z,12.02
2022-11-12T23:43:56.334Z,9.10
2022-11-12T23:46:23.916Z,10.32
2022-11-12T23:48:51.254Z,11.73
2022-11-12T23:51:21.116Z,12.60
2022-11-12T23:53:49.101Z,11.03
2022-11-12T23:56:18.667Z,11.90
2022-11-12T23:58:45.979Z,8.90
